Time;durP1;ratioP1;P1;durP2;ratioP2;P2;SDS_P1;SDS_P2;PMS_P1;PMS_P2;Temp;Humidity;BMP_temperature;BMP_pressure;BME280_temperature;BME280_humidity;BME280_pressure;Samples;Min_cycle;Max_cycle;Signal;HPM_P1;HPM_P2
2022/08/11 00:01:08;;;;;;;4.93;3.13;;;;;;;17.83;64.90;101122.22;5058625;28;20476;-79
2022/08/11 00:03:36;;;;;;;3.70;3.00;;;;;;;17.72;64.64;101121.69;5047276;28;20469;-80
2022/08/11 00:06:03;;;;;;;3.50;3.17;;;;;;;17.56;65.32;101123.34;5056642;28;20478;-80
2022/08/11 00:08:31;;;;;;;3.77;2.87;;;;;;;17.49;66.05;101112.34;5055883;28;20445;-80
2022/08/11 00:11:00;;;;;;;3.07;2.57;;;;;;;17.45;66.13;101116.41;5050048;28;20481;-80
2022/08/11 00:13:34;;;;;;;3.10;2.80;;;;;;;17.51;66.49;101123.00;5049981;28;20448;-80
2022/08/11 00:16:02;;;;;;;3.40;3.10;;;;;;;17.48;65.95;101115.22;5050877;28;21057;-79
2022/08/11 00:18:30;;;;;;;3.83;2.80;;;;;;;17.42;66.06;101119.44;5044935;28;20427;-79
2022/08/11 00:20:59;;;;;;;4.67;2.73;;;;;;;17.44;66.67;101111.16;5058743;28;20481;-78
2022/08/11 00:23:26;;;;;;;3.40;2.73;;;;;;;17.44;66.79;101109.28;5064818;28;20444;-79
2022/08/11 00:25:53;;;;;;;4.00;3.60;;;;;;;17.42;66.53;101108.63;5063682;28;20493;-79
2022/08/11 00:28:24;;;;;;;5.63;3.40;;;;;;;17.36;66.88;101109.28;5059655;28;20483;-82
2022/08/11 00:30:53;;;;;;;3.50;3.00;;;;;;;17.36;67.27;101111.13;5058578;28;20481;-81
2022/08/11 00:33:21;;;;;;;5.97;3.60;;;;;;;17.36;66.56;101108.41;5054805;28;20476;-79
2022/08/11 00:35:48;;;;;;;5.47;3.40;;;;;;;17.29;65.94;101113.63;5059477;28;20484;-79
2022/08/11 00:38:16;;;;;;;3.60;2.83;;;;;;;17.24;66.82;101116.84;5060354;28;20445;-78
2022/08/11 00:40:45;;;;;;;3.60;2.97;;;;;;;17.23;66.80;101112.44;5046625;28;20470;-79
2022/08/11 00:43:20;;;;;;;3.60;3.10;;;;;;;17.23;66.09;101112.44;5044132;28;20456;-79
2022/08/11 00:46:02;;;;;;;4.03;3.70;;;;;;;17.19;66.91;101121.88;5059240;28;20479;-79
2022/08/11 00:48:36;;;;;;;3.60;3.20;;;;;;;17.10;67.13;101118.31;5063803;28;20443;-79
2022/08/11 00:51:11;;;;;;;4.00;2.97;;;;;;;17.02;67.49;101112.03;5061561;28;21004;-79
2022/08/11 00:53:46;;;;;;;3.70;3.40;;;;;;;17.00;67.80;101116.75;5062583;28;20441;-79
2022/08/11 00:56:57;;;;;;;7.00;2.93;;;;;;;16.97;68.64;101112.50;5061987;28;20472;-79
2022/08/11 00:59:48;;;;;;;4.73;3.80;;;;;;;16.96;68.79;101121.63;5059868;28;20497;-79
2022/08/11 01:02:18;;;;;;;4.97;3.23;;;;;;;16.95;68.84;101117.22;5043062;28;20508;-79
2022/08/11 01:05:23;;;;;;;5.00;2.80;;;;;;;16.86;68.68;101115.50;5051110;28;20468;-79
2022/08/11 01:08:13;;;;;;;5.33;3.33;;;;;;;16.81;69.33;101124.03;5061434;28;20476;-78
2022/08/11 01:10:48;;;;;;;6.37;3.00;;;;;;;16.78;68.87;101124.34;5042543;28;20504;-79
2022/08/11 01:13:29;;;;;;;5.57;3.67;;;;;;;16.75;69.25;101114.72;5043813;28;20445;-78
2022/08/11 01:16:29;;;;;;;3.10;2.80;;;;;;;16.68;68.85;101121.78;5042711;28;20500;-79
2022/08/11 01:19:26;;;;;;;5.67;3.23;;;;;;;16.66;69.11;101120.22;5051817;28;20469;-79
2022/08/11 01:22:28;;;;;;;5.77;3.10;;;;;;;16.63;68.45;101121.41;5048888;28;20836;-79
2022/08/11 01:25:41;;;;;;;3.50;2.83;;;;;;;16.53;68.78;101120.66;5063199;28;20496;-79
2022/08/11 01:28:40;;;;;;;4.00;3.60;;;;;;;16.45;69.56;101117.88;5059524;28;20508;-79
2022/08/11 01:31:27;;;;;;;4.83;3.57;;;;;;;16.42;69.21;101119.03;5042401;28;20481;-79
2022/08/11 01:34:36;;;;;;;4.47;3.50;;;;;;;16.44;69.09;101122.44;5051028;28;20448;-79
2022/08/11 01:37:16;;;;;;;4.23;3.23;;;;;;;16.38;69.20;101123.91;5061840;28;20546;-79
2022/08/11 01:40:22;;;;;;;6.50;3.10;;;;;;;16.41;69.80;101127.31;5063180;28;20538;-81
2022/08/11 01:46:08;;;;;;;5.90;2.97;;;;;;;16.33;70.13;101118.13;5057092;28;20871;-79
2022/08/11 01:48:41;;;;;;;3.40;3.10;;;;;;;16.24;70.81;101123.63;5061998;28;20953;-80
2022/08/11 01:51:16;;;;;;;5.63;3.40;;;;;;;16.20;70.98;101125.81;5056215;28;20515;-79
2022/08/11 01:53:53;;;;;;;4.27;3.67;;;;;;;16.18;71.38;101123.25;5062791;28;20433;-80
2022/08/11 01:56:42;;;;;;;6.43;3.90;;;;;;;16.15;71.19;101123.56;5061812;28;20480;-80
2022/08/11 01:59:17;;;;;;;4.27;3.73;;;;;;;16.12;71.52;101128.41;5062006;28;20457;-80
2022/08/11 02:02:02;;;;;;;3.67;3.37;;;;;;;16.00;71.70;101125.97;5062354;28;20569;-80
2022/08/11 02:04:33;;;;;;;4.53;4.00;;;;;;;15.90;71.62;101122.50;5061557;28;20487;-79
2022/08/11 02:07:05;;;;;;;3.67;3.13;;;;;;;15.86;71.67;101120.25;5061635;28;20516;-80
2022/08/11 02:09:51;;;;;;;6.07;3.30;;;;;;;15.83;71.87;101124.09;5061470;28;20487;-80
2022/08/11 02:12:27;;;;;;;3.30;3.00;;;;;;;15.77;71.89;101122.88;5061883;28;20475;-80
2022/08/11 02:15:03;;;;;;;6.13;3.43;;;;;;;15.72;72.00;101122.44;5042371;28;20473;-80
2022/08/11 02:17:41;;;;;;;4.07;2.87;;;;;;;15.78;71.78;101127.28;5046735;28;20504;-80
2022/08/11 02:25:56;;;;;;;4.63;3.10;;;;;;;15.95;70.56;101120.19;5042095;28;21045;-80
2022/08/11 02:28:27;;;;;;;4.20;3.10;;;;;;;15.92;70.17;101125.88;5061846;28;20460;-80
2022/08/11 02:33:48;;;;;;;3.87;3.40;;;;;;;15.93;70.01;101124.03;5036962;28;20453;-80
2022/08/11 02:36:18;;;;;;;4.93;3.67;;;;;;;15.94;69.82;101123.88;5060541;28;20515;-80
2022/08/11 02:38:52;;;;;;;4.83;3.33;;;;;;;15.91;69.83;101126.88;5062101;28;20513;-80
2022/08/11 02:44:30;;;;;;;3.20;2.90;;;;;;;15.87;70.39;101122.81;5000112;28;20459;-80
2022/08/11 02:47:06;;;;;;;6.67;3.93;;;;;;;15.79;70.13;101123.56;4999710;28;20471;-80
2022/08/11 02:49:55;;;;;;;4.50;3.40;;;;;;;15.80;70.83;101130.66;5023152;28;20496;-81
2022/08/11 02:52:31;;;;;;;4.30;3.90;;;;;;;15.74;70.62;101119.59;5047645;28;20544;-81
2022/08/11 02:55:19;;;;;;;4.80;3.60;;;;;;;15.75;70.14;101127.56;5061667;28;20511;-81
2022/08/11 02:57:53;;;;;;;6.70;3.70;;;;;;;15.73;70.42;101118.75;5060084;28;20468;-81
2022/08/11 03:00:20;;;;;;;4.53;3.50;;;;;;;15.69;70.50;101120.03;5061154;28;20516;-81
2022/08/11 03:03:07;;;;;;;4.33;3.63;;;;;;;15.66;70.80;101120.38;5061845;28;20459;-81
2022/08/11 03:05:44;;;;;;;9.10;3.60;;;;;;;15.62;71.27;101121.66;5054315;28;20472;-80
2022/08/11 03:08:21;;;;;;;3.83;3.53;;;;;;;15.61;71.52;101130.78;5050216;28;20488;-79
2022/08/11 03:16:45;;;;;;;6.27;3.60;;;;;;;15.36;71.94;101137.72;5062402;28;20530;-79
2022/08/11 03:19:19;;;;;;;5.97;3.40;;;;;;;15.34;71.49;101132.47;5052191;28;20499;-79
2022/08/11 03:21:51;;;;;;;5.33;4.30;;;;;;;15.32;72.07;101137.16;5044439;28;21006;-79
2022/08/11 03:24:22;;;;;;;4.67;3.37;;;;;;;15.34;71.91;101140.56;5058189;28;20441;-79
2022/08/11 03:26:59;;;;;;;5.07;3.53;;;;;;;15.35;71.73;101136.88;5044501;28;20925;-78
2022/08/11 03:29:32;;;;;;;5.30;3.73;;;;;;;15.33;72.24;101138.00;5063131;28;20515;-79
2022/08/11 03:32:03;;;;;;;5.10;3.73;;;;;;;15.32;72.40;101130.94;5047957;28;20504;-80
2022/08/11 03:34:30;;;;;;;3.90;3.60;;;;;;;15.31;72.38;101130.09;5064945;28;20472;-79
2022/08/11 03:43:13;;;;;;;6.97;3.63;;;;;;;15.30;72.60;101132.94;5064228;28;20476;-79
2022/08/11 03:45:56;;;;;;;9.13;3.87;;;;;;;15.27;72.27;101139.47;5063167;28;20496;-79
2022/08/11 03:48:25;;;;;;;5.80;3.70;;;;;;;15.24;72.21;101134.34;5064781;28;20464;-79
2022/08/11 03:51:03;;;;;;;6.27;3.83;;;;;;;15.20;72.54;101127.59;5062931;28;20484;-79
2022/08/11 03:53:54;;;;;;;4.63;3.60;;;;;;;15.22;72.37;101134.53;5064063;28;20445;-79
2022/08/11 03:57:08;;;;;;;6.40;3.33;;;;;;;15.21;72.78;101138.22;5062287;28;20567;-80
2022/08/11 04:00:09;;;;;;;8.47;4.00;;;;;;;15.11;73.44;101131.19;5042720;28;20452;-80
2022/08/11 04:03:20;;;;;;;5.87;4.50;;;;;;;15.07;73.57;101134.16;5033979;28;21044;-80
2022/08/11 04:06:27;;;;;;;4.80;3.43;;;;;;;15.08;73.98;101132.31;5016512;28;20516;-80
2022/08/11 04:09:34;;;;;;;4.23;3.83;;;;;;;15.19;73.75;101136.66;5059470;28;20873;-78
2022/08/11 04:12:18;;;;;;;8.93;4.00;;;;;;;15.78;73.64;101134.53;5059099;28;20491;-76
2022/08/11 04:18:18;;;;;;;5.83;3.53;;;;;;;17.33;66.52;101125.00;5063822;28;20491;-76
2022/08/11 04:21:06;;;;;;;7.10;3.90;;;;;;;17.81;63.31;101123.41;5055184;28;20468;-75
2022/08/11 04:23:50;;;;;;;6.50;5.17;;;;;;;17.80;62.78;101125.25;5049237;28;20482;-75
2022/08/11 04:26:59;;;;;;;6.50;3.90;;;;;;;17.47;63.74;101118.94;5051710;28;20476;-78
2022/08/11 04:29:40;;;;;;;6.80;4.10;;;;;;;17.50;64.62;101124.88;4986853;28;20521;-76
2022/08/11 04:32:20;;;;;;;7.70;3.93;;;;;;;18.06;62.52;101121.63;5048723;28;20462;-71
2022/08/11 04:35:24;;;;;;;6.87;3.90;;;;;;;18.23;60.76;101123.31;5062098;28;20504;-84
2022/08/11 04:38:19;;;;;;;5.07;3.53;;;;;;;18.67;59.43;101126.66;5061804;28;20460;-85
2022/08/11 04:41:18;;;;;;;7.50;3.43;;;;;;;19.13;57.70;101125.03;5052625;28;20550;-85
2022/08/11 04:44:21;;;;;;;6.33;3.43;;;;;;;19.34;56.39;101124.41;5044483;28;20442;-85
2022/08/11 04:46:59;;;;;;;6.57;4.30;;;;;;;18.71;58.41;101133.41;5044400;28;20473;-85
2022/08/11 05:03:05;;;;;;;4.97;3.53;;;;;;;17.24;65.49;101127.66;5008970;28;20509;-84
2022/08/11 05:06:08;;;;;;;6.00;3.77;;;;;;;17.42;64.93;101129.41;5062267;28;20496;-85
2022/08/11 05:08:54;;;;;;;5.93;4.30;;;;;;;17.92;63.63;101128.53;4987599;28;20471;-86
2022/08/11 05:12:10;;;;;;;5.33;3.50;;;;;;;19.60;58.90;101131.41;5057327;28;20515;-75
2022/08/11 05:37:13;;;;;;;5.20;3.40;;;;;;;24.11;44.05;101138.59;5062224;28;20475;-76
2022/08/11 05:56:20;;;;;;;8.60;4.50;;;;;;;24.28;42.95;101134.38;5061180;28;20515;-77
2022/08/11 05:58:50;;;;;;;6.43;3.70;;;;;;;25.31;40.28;101128.38;5060496;28;20437;-76
2022/08/11 06:01:23;;;;;;;7.00;3.50;;;;;;;24.69;41.91;101121.59;5060571;28;20488;-77
2022/08/11 06:06:39;;;;;;;3.93;3.53;;;;;;;25.23;40.61;101135.97;5061087;28;21066;-77
2022/08/11 06:09:06;;;;;;;4.23;3.37;;;;;;;26.21;38.77;101130.16;5061759;28;20484;-77
2022/08/11 06:11:37;;;;;;;11.67;3.50;;;;;;;25.16;40.70;101134.06;5061345;28;20491;-76
2022/08/11 06:14:05;;;;;;;8.03;3.50;;;;;;;26.06;38.71;101133.25;5062280;28;20468;-77
2022/08/11 06:16:34;;;;;;;6.97;4.00;;;;;;;26.34;38.85;101129.25;5061063;28;21238;-77
2022/08/11 06:19:01;;;;;;;6.90;3.60;;;;;;;27.28;36.36;101126.41;5062757;28;20467;-77
2022/08/11 06:21:28;;;;;;;4.73;3.57;;;;;;;26.88;37.08;101123.28;5060554;28;20499;-77
2022/08/11 06:23:56;;;;;;;4.13;3.70;;;;;;;28.31;35.22;101126.44;5060751;28;20523;-77
2022/08/11 06:26:22;;;;;;;5.70;3.83;;;;;;;27.19;36.37;101127.78;5061715;28;20509;-77
2022/08/11 06:28:49;;;;;;;4.60;3.50;;;;;;;28.15;35.60;101130.72;5061681;28;20536;-77
2022/08/11 06:31:19;;;;;;;3.43;3.10;;;;;;;27.92;35.53;101126.84;5060121;28;20457;-77
2022/08/11 06:33:54;;;;;;;5.57;3.07;;;;;;;29.90;32.35;101129.06;5061767;28;20459;-77
2022/08/11 06:36:26;;;;;;;7.30;3.50;;;;;;;28.48;34.66;101126.56;5060812;28;20512;-77
2022/08/11 06:39:00;;;;;;;3.50;3.13;;;;;;;28.88;33.65;101126.69;5061088;28;20579;-77
2022/08/11 06:41:30;;;;;;;4.50;3.03;;;;;;;28.79;33.96;101122.63;5059896;28;20833;-78
2022/08/11 06:44:05;;;;;;;8.17;3.50;;;;;;;28.11;34.78;101126.78;5054802;28;20442;-77
2022/08/11 06:46:36;;;;;;;3.77;3.37;;;;;;;30.04;30.80;101128.47;5040254;28;20888;-77
2022/08/11 06:49:04;;;;;;;5.73;3.40;;;;;;;29.89;30.89;101130.13;5041525;28;20467;-77
2022/08/11 06:51:30;;;;;;;6.37;3.03;;;;;;;28.49;32.89;101131.00;5041756;28;20488;-77
2022/08/11 06:53:58;;;;;;;3.53;3.10;;;;;;;29.21;31.78;101130.72;5044772;28;20458;-78
2022/08/11 07:02:03;;;;;;;5.27;3.00;;;;;;;28.41;32.59;101128.59;5064506;28;20873;-77
2022/08/11 07:04:35;;;;;;;4.23;2.77;;;;;;;29.81;30.78;101123.94;5065086;28;20458;-77
2022/08/11 07:15:59;;;;;;;3.57;2.70;;;;;;;31.78;27.35;101132.03;5063822;28;20633;-77
2022/08/11 07:29:35;;;;;;;5.23;2.87;;;;;;;30.69;28.66;101131.72;5063482;28;20615;-77
2022/08/11 07:32:13;;;;;;;3.57;2.63;;;;;;;30.88;28.40;101125.94;5064062;28;20465;-78
2022/08/11 07:34:45;;;;;;;3.87;2.60;;;;;;;32.14;27.69;101131.56;5064012;28;20452;-77
2022/08/11 07:37:19;;;;;;;3.40;2.10;;;;;;;32.40;26.59;101125.13;5063055;28;20478;-77
2022/08/11 07:39:47;;;;;;;4.43;2.50;;;;;;;32.61;25.98;101120.59;5064120;28;20468;-77
2022/08/11 07:42:16;;;;;;;3.77;2.00;;;;;;;32.08;25.79;101117.69;5063509;28;20478;-77
2022/08/11 07:52:59;;;;;;;3.77;2.57;;;;;;;34.62;23.16;101127.50;5063177;28;20615;-78
2022/08/11 07:55:26;;;;;;;6.10;2.83;;;;;;;32.72;25.36;101120.66;5063521;28;20467;-78
2022/08/11 08:19:52;;;;;;;3.73;1.97;;;;;;;33.55;24.27;101123.53;5063806;28;20449;-78
2022/08/11 08:22:20;;;;;;;2.20;1.93;;;;;;;34.18;22.80;101125.28;5062256;28;20486;-77
2022/08/11 08:24:48;;;;;;;2.60;2.10;;;;;;;33.68;24.48;101124.97;5063914;28;20439;-77
2022/08/11 08:27:16;;;;;;;3.17;2.10;;;;;;;33.55;24.37;101128.25;5062672;28;20482;-78
2022/08/11 08:32:38;;;;;;;2.77;1.87;;;;;;;36.87;20.58;101124.38;5018513;28;20468;-77
2022/08/11 08:35:06;;;;;;;2.87;2.10;;;;;;;34.89;22.82;101118.84;5043376;28;20963;-78
2022/08/11 08:37:33;;;;;;;3.20;1.90;;;;;;;33.97;23.73;101113.34;5041935;28;20506;-78
2022/08/11 08:40:01;;;;;;;2.43;1.80;;;;;;;35.79;22.56;101118.97;5043194;28;20489;-78
2022/08/11 08:42:30;;;;;;;2.63;2.00;;;;;;;34.92;22.47;101116.59;5042837;28;21053;-78
2022/08/11 08:44:59;;;;;;;3.53;1.77;;;;;;;34.66;23.06;101117.47;5047639;28;20963;-78
2022/08/11 08:47:26;;;;;;;5.50;2.07;;;;;;;34.45;23.05;101113.91;5062131;28;20482;-78
2022/08/11 08:50:01;;;;;;;4.03;2.20;;;;;;;35.06;22.74;101106.53;5062813;28;20522;-78
2022/08/11 08:52:29;;;;;;;4.93;2.00;;;;;;;35.10;21.53;101110.41;5061851;28;20474;-77
2022/08/11 08:54:58;;;;;;;3.23;1.80;;;;;;;36.25;21.20;101115.00;5063229;28;20446;-79
2022/08/11 08:57:28;;;;;;;5.10;1.90;;;;;;;35.53;20.95;101107.16;5062522;28;20478;-78
2022/08/11 08:59:55;;;;;;;1.87;1.60;;;;;;;35.70;20.56;101101.22;5062455;28;20455;-78
2022/08/11 09:02:25;;;;;;;4.87;2.17;;;;;;;35.64;21.12;101104.03;5061993;28;20500;-78
2022/08/11 09:04:53;;;;;;;2.70;2.10;;;;;;;34.88;20.65;101102.44;5042841;28;20457;-77
2022/08/11 09:07:25;;;;;;;3.40;2.40;;;;;;;35.74;19.53;101105.91;5040792;28;20485;-77
2022/08/11 09:09:53;;;;;;;3.33;1.90;;;;;;;33.88;22.61;101096.41;5042468;28;20452;-78
2022/08/11 09:12:22;;;;;;;3.37;2.27;;;;;;;35.25;21.04;101102.03;5041571;28;21074;-78
2022/08/11 09:15:02;;;;;;;2.57;1.83;;;;;;;35.73;20.88;101103.41;5057207;28;20473;-78
2022/08/11 09:17:31;;;;;;;2.00;1.80;;;;;;;35.81;19.19;101105.59;5041895;28;20480;-77
2022/08/11 09:20:00;;;;;;;4.13;1.97;;;;;;;35.85;19.17;101103.06;5041864;28;20942;-77
2022/08/11 09:27:56;;;;;;;4.50;2.60;;;;;;;37.98;17.90;101091.59;5041298;28;20799;-77
2022/08/11 09:30:25;;;;;;;2.13;1.83;;;;;;;37.28;17.64;101086.84;5046243;28;20817;-77
2022/08/11 09:32:56;;;;;;;3.20;1.87;;;;;;;37.04;18.43;101092.44;5062358;28;20483;-77
2022/08/11 09:35:24;;;;;;;4.20;2.50;;;;;;;36.09;19.54;101090.03;5061045;28;20443;-77
2022/08/11 09:40:36;;;;;;;4.53;2.10;;;;;;;36.53;18.85;101091.88;5061232;28;20832;-77
2022/08/11 09:45:52;;;;;;;2.80;2.13;;;;;;;34.26;21.30;101085.06;5052117;28;20478;-77
2022/08/11 09:48:20;;;;;;;4.43;2.03;;;;;;;35.83;18.70;101078.31;5061916;28;20470;-77
2022/08/11 09:50:49;;;;;;;4.73;2.30;;;;;;;37.38;17.73;101072.75;5059950;28;20478;-78
2022/08/11 09:53:16;;;;;;;4.33;2.20;;;;;;;36.73;18.61;101074.13;5062106;28;20459;-78
2022/08/11 09:55:44;;;;;;;3.40;2.20;;;;;;;36.61;18.50;101079.25;5061045;28;20518;-77
2022/08/11 09:58:13;;;;;;;4.33;1.90;;;;;;;37.07;17.65;101066.75;5061234;28;20460;-77
2022/08/11 10:00:40;;;;;;;3.03;2.20;;;;;;;36.08;17.83;101068.91;5060929;28;20499;-77
2022/08/11 10:03:12;;;;;;;6.90;2.53;;;;;;;35.99;17.79;101068.72;5061596;28;20478;-77
2022/08/11 10:08:28;;;;;;;3.03;2.03;;;;;;;35.85;17.68;101062.16;5061636;28;20454;-77
2022/08/11 10:10:55;;;;;;;4.63;2.30;;;;;;;35.15;18.96;101053.97;5060733;28;20505;-77
2022/08/11 10:13:28;;;;;;;3.60;2.50;;;;;;;35.63;17.60;101057.84;5061060;28;20462;-78
2022/08/11 10:15:54;;;;;;;2.40;2.20;;;;;;;34.98;17.46;101057.97;5060765;28;20498;-77
2022/08/11 10:18:41;;;;;;;2.30;2.10;;;;;;;35.63;17.97;101059.81;5061237;28;20447;-77
2022/08/11 10:21:12;;;;;;;2.20;2.00;;;;;;;35.43;18.03;101055.22;5060026;28;20484;-78
2022/08/11 10:34:38;;;;;;;2.83;2.10;;;;;;;35.16;18.19;101041.75;5064875;28;20481;-78
2022/08/11 10:37:11;;;;;;;3.23;2.40;;;;;;;34.58;18.10;101037.50;5064082;28;20493;-77
2022/08/11 10:39:39;;;;;;;4.17;2.40;;;;;;;34.69;18.59;101036.38;5065496;28;20810;-78
2022/08/11 10:44:52;;;;;;;3.20;2.33;;;;;;;35.71;17.69;101036.09;5063516;28;20850;-78
2022/08/11 10:47:33;;;;;;;3.53;1.93;;;;;;;35.63;17.79;101030.03;5064634;28;20505;-78
2022/08/11 11:01:02;;;;;;;3.07;2.10;;;;;;;35.52;18.58;101008.13;5064256;28;20489;-78
2022/08/11 11:03:30;;;;;;;2.53;2.33;;;;;;;34.67;18.17;101010.00;5064750;28;20430;-77
2022/08/11 11:06:09;;;;;;;2.90;2.20;;;;;;;34.96;18.77;101010.16;5064796;28;20465;-78
2022/08/11 11:08:54;;;;;;;3.10;2.17;;;;;;;34.84;18.45;101007.72;5064831;28;20461;-78
2022/08/11 11:11:22;;;;;;;3.03;2.03;;;;;;;34.77;18.44;101001.63;5063577;28;20480;-78
2022/08/11 11:19:23;;;;;;;3.30;2.30;;;;;;;34.75;18.12;100994.72;5063994;28;20430;-77
2022/08/11 11:22:36;;;;;;;3.30;2.00;;;;;;;35.28;18.30;100996.91;5063659;28;20478;-78
2022/08/11 11:24:46;;;;;;;5.40;2.60;;;;;;;35.14;17.87;101003.13;5064630;28;20540;-78
2022/08/11 11:27:19;;;;;;;2.40;2.03;;;;;;;35.26;18.42;100992.50;5047440;28;20497;-78
2022/08/11 11:30:02;;;;;;;3.67;2.30;;;;;;;35.38;18.04;101000.47;5064279;28;20878;-78
2022/08/11 11:32:38;;;;;;;3.70;2.43;;;;;;;35.05;18.25;100991.78;5064231;28;20471;-78
2022/08/11 11:35:14;;;;;;;3.50;2.03;;;;;;;34.24;19.08;100982.66;5063817;28;20994;-78
2022/08/11 11:37:45;;;;;;;3.47;2.57;;;;;;;34.60;17.73;100990.00;5062383;28;20501;-77
2022/08/11 11:40:13;;;;;;;4.97;2.23;;;;;;;35.19;17.46;100982.78;5063721;28;20595;-77
2022/08/11 11:42:41;;;;;;;3.63;2.13;;;;;;;34.62;18.68;100979.47;5063264;28;20754;-77
2022/08/11 11:45:09;;;;;;;4.30;2.37;;;;;;;35.21;18.01;100981.41;5047279;28;20467;-78
2022/08/11 11:47:36;;;;;;;3.60;2.10;;;;;;;34.43;18.74;100980.09;5043962;28;20432;-77
2022/08/11 11:50:04;;;;;;;2.30;2.10;;;;;;;33.68;18.72;100979.94;5043299;28;20440;-77
2022/08/11 11:52:31;;;;;;;3.80;1.90;;;;;;;34.40;19.31;100980.66;5042956;28;20490;-77
2022/08/11 11:55:00;;;;;;;5.40;2.17;;;;;;;34.52;19.74;100978.38;5044322;28;20482;-78
2022/08/11 12:03:02;;;;;;;5.20;2.33;;;;;;;34.32;19.03;100968.19;5043377;28;20687;-77
2022/08/11 12:05:31;;;;;;;3.30;2.03;;;;;;;33.98;18.96;100967.97;5042794;28;20555;-78
2022/08/11 12:08:13;;;;;;;2.77;2.20;;;;;;;34.03;18.78;100959.66;5043354;28;20457;-77
2022/08/11 12:10:44;;;;;;;3.63;2.00;;;;;;;33.62;19.16;100965.22;5042327;28;20486;-77
2022/08/11 12:15:55;;;;;;;4.10;2.37;;;;;;;32.88;19.06;100939.63;5048309;28;20984;-77
2022/08/11 12:18:22;;;;;;;3.27;2.20;;;;;;;32.49;20.28;100942.78;5062835;28;20430;-77
2022/08/11 12:20:49;;;;;;;2.80;2.23;;;;;;;32.00;20.70;100948.59;5062851;28;20474;-77
2022/08/11 12:28:47;;;;;;;4.53;2.40;;;;;;;31.45;21.16;100934.06;5062527;28;20487;-78
2022/08/11 12:31:13;;;;;;;4.77;2.30;;;;;;;31.35;21.43;100934.78;5062152;28;20482;-77
2022/08/11 12:33:42;;;;;;;3.43;2.10;;;;;;;31.58;22.36;100936.41;5062790;28;20459;-77
2022/08/11 12:36:15;;;;;;;2.50;2.13;;;;;;;31.69;21.13;100931.78;5062135;28;20476;-79
2022/08/11 12:38:44;;;;;;;2.70;2.50;;;;;;;31.28;22.05;100925.91;5062743;28;20525;-76
2022/08/11 12:46:43;;;;;;;2.10;1.87;;;;;;;31.86;21.71;100915.88;5042452;28;20981;-77
2022/08/11 12:51:58;;;;;;;2.63;2.43;;;;;;;32.06;21.51;100906.88;5059745;28;20502;-77
2022/08/11 12:54:27;;;;;;;2.20;2.00;;;;;;;32.24;20.77;100904.78;5061857;28;20927;-77
2022/08/11 13:05:14;;;;;;;3.50;2.50;;;;;;;32.08;20.37;100909.38;5061836;28;20498;-77
2022/08/11 13:07:43;;;;;;;4.13;2.37;;;;;;;31.74;19.93;100897.84;5062236;28;20480;-78
2022/08/11 13:10:11;;;;;;;3.47;2.23;;;;;;;31.96;20.62;100904.06;5061047;28;20503;-77
2022/08/11 13:12:48;;;;;;;2.50;2.20;;;;;;;32.28;20.37;100906.72;5062684;28;20426;-76
2022/08/11 13:15:17;;;;;;;2.60;2.20;;;;;;;32.12;20.66;100895.84;5061466;28;20433;-77
2022/08/11 13:17:44;;;;;;;4.77;2.10;;;;;;;32.67;20.22;100899.13;5061767;28;20469;-78
2022/08/11 13:20:12;;;;;;;4.70;2.60;;;;;;;32.13;21.30;100897.53;5058538;28;20427;-78
2022/08/11 13:22:44;;;;;;;3.50;2.33;;;;;;;31.66;21.31;100894.44;5055959;28;20455;-77
2022/08/11 13:25:13;;;;;;;2.50;2.30;;;;;;;31.85;20.77;100892.06;5057514;28;20449;-78
2022/08/11 13:27:41;;;;;;;2.57;2.10;;;;;;;31.62;21.30;100895.25;5051041;28;20453;-78
2022/08/11 13:32:53;;;;;;;2.57;2.17;;;;;;;32.37;19.65;100886.84;5043624;28;20925;-79
2022/08/11 13:35:20;;;;;;;4.10;2.00;;;;;;;32.12;19.30;100882.00;5060016;28;20444;-78
2022/08/11 13:37:47;;;;;;;3.40;2.00;;;;;;;32.56;19.90;100879.69;5060370;28;20500;-78
2022/08/11 13:40:17;;;;;;;2.30;2.10;;;;;;;31.89;20.94;100875.78;5047712;28;20577;-78
2022/08/11 13:42:45;;;;;;;2.43;2.23;;;;;;;31.80;21.09;100877.41;5061117;28;20449;-77
2022/08/11 13:45:12;;;;;;;2.30;1.83;;;;;;;31.52;20.75;100882.19;5057850;28;20453;-78
2022/08/11 13:47:39;;;;;;;2.73;2.27;;;;;;;32.51;19.63;100868.59;5054663;28;20851;-78
2022/08/11 13:50:07;;;;;;;4.90;2.03;;;;;;;32.40;20.00;100875.22;5043975;28;20461;-78
2022/08/11 13:52:35;;;;;;;3.63;1.70;;;;;;;32.09;20.51;100878.69;5040821;28;20471;-78
2022/08/11 13:55:02;;;;;;;5.20;1.90;;;;;;;31.52;20.12;100866.44;5041778;28;20481;-78
2022/08/11 13:57:32;;;;;;;3.30;2.00;;;;;;;32.02;20.16;100864.25;5041183;28;20500;-78
2022/08/11 14:00:09;;;;;;;2.53;2.10;;;;;;;31.98;19.54;100863.13;5041484;28;20449;-78
2022/08/11 14:02:38;;;;;;;3.00;1.80;;;;;;;32.09;20.09;100855.72;5054723;28;20464;-78
2022/08/11 14:05:10;;;;;;;2.87;2.10;;;;;;;32.52;20.57;100853.69;5061906;28;20461;-77
2022/08/11 14:07:39;;;;;;;4.20;2.30;;;;;;;32.07;20.07;100849.66;5060563;28;20538;-77
2022/08/11 14:10:07;;;;;;;2.30;2.10;;;;;;;32.17;21.05;100846.94;5060751;28;20432;-78
2022/08/11 14:15:23;;;;;;;3.40;1.83;;;;;;;32.00;20.65;100835.22;5061060;28;20420;-78
2022/08/11 14:17:53;;;;;;;6.60;2.00;;;;;;;31.76;20.87;100843.09;5060670;28;20477;-78
2022/08/11 14:20:20;;;;;;;4.03;1.80;;;;;;;32.12;20.00;100849.66;5060160;28;20452;-78
2022/08/11 14:22:46;;;;;;;5.00;2.40;;;;;;;32.22;19.44;100833.13;5060996;28;20457;-78
2022/08/11 14:25:15;;;;;;;3.30;1.93;;;;;;;31.61;20.61;100833.59;5060506;28;20437;-78
2022/08/11 14:27:43;;;;;;;2.37;1.63;;;;;;;31.76;21.08;100840.34;5060934;28;20567;-78
2022/08/11 14:30:53;;;;;;;3.03;2.23;;;;;;;31.75;21.74;100833.94;5060383;28;20485;-78
2022/08/11 14:33:01;;;;;;;6.80;1.90;;;;;;;31.79;20.62;100832.34;5060251;28;20885;-78
2022/08/11 14:35:28;;;;;;;5.17;2.10;;;;;;;32.06;20.61;100831.38;5060070;28;20477;-77
2022/08/11 14:37:56;;;;;;;2.90;2.23;;;;;;;32.38;20.48;100835.94;5059038;28;20558;-78
2022/08/11 14:48:38;;;;;;;3.20;2.60;;;;;;;31.97;21.25;100836.56;5041542;28;20428;-78
2022/08/11 14:51:05;;;;;;;3.03;2.13;;;;;;;31.72;20.75;100828.97;5042138;28;20508;-77
2022/08/11 14:53:32;;;;;;;5.60;1.93;;;;;;;31.68;21.00;100820.41;5055546;28;20449;-78
2022/08/11 14:58:44;;;;;;;2.50;2.30;;;;;;;31.28;20.91;100827.31;5057624;28;20500;-78
2022/08/11 15:03:53;;;;;;;3.57;2.23;;;;;;;32.12;20.36;100832.22;5045563;28;20442;-78
2022/08/11 15:06:20;;;;;;;3.13;2.20;;;;;;;32.16;20.72;100825.88;5040830;28;20517;-78
2022/08/11 15:08:56;;;;;;;3.60;2.13;;;;;;;32.13;20.68;100829.19;5041456;28;20485;-79
2022/08/11 15:17:09;;;;;;;3.43;2.10;;;;;;;31.42;20.32;100822.16;5045821;28;20504;-78
2022/08/11 15:24:18;;;;;;;5.37;2.10;;;;;;;31.59;20.54;100807.34;5055020;28;20442;-77
2022/08/11 15:25:12;;;;;;;2.67;1.97;;;;;;;31.27;20.81;100810.97;5051510;28;20521;-77
2022/08/11 15:38:44;;;;;;;3.53;2.10;;;;;;;31.47;20.67;100805.56;5045152;28;20480;-77
2022/08/11 15:46:45;;;;;;;3.43;1.90;;;;;;;31.66;20.08;100792.16;5043495;28;20477;-77
2022/08/11 15:49:14;;;;;;;4.20;2.30;;;;;;;31.31;20.65;100787.25;5044315;28;20465;-77
2022/08/11 15:51:45;;;;;;;2.50;1.83;;;;;;;31.13;20.65;100785.75;5056935;28;21023;-77
2022/08/11 15:54:15;;;;;;;3.20;2.17;;;;;;;31.33;21.52;100779.50;5043545;28;20438;-77
2022/08/11 15:56:44;;;;;;;10.30;2.87;;;;;;;31.39;20.09;100775.69;5059801;28;20551;-77
2022/08/11 16:04:42;;;;;;;7.17;2.53;;;;;;;31.17;20.57;100782.16;5050013;28;20472;-77
2022/08/11 16:07:12;;;;;;;3.37;2.67;;;;;;;31.66;20.99;100774.75;5049777;28;20477;-78
2022/08/11 16:09:43;;;;;;;3.30;2.90;;;;;;;31.35;21.09;100778.16;5050892;28;20464;-79
2022/08/11 16:12:14;;;;;;;8.37;4.27;;;;;;;31.00;21.54;100775.16;5062816;28;20477;-78
2022/08/11 16:17:31;;;;;;;2.60;1.90;;;;;;;31.11;20.91;100774.09;5054730;28;20499;-77
2022/08/11 16:19:58;;;;;;;3.17;2.27;;;;;;;31.07;21.21;100768.28;5054792;28;20475;-77
2022/08/11 16:22:35;;;;;;;2.40;2.17;;;;;;;31.02;20.60;100770.19;5059981;28;20981;-77
2022/08/11 16:25:03;;;;;;;2.80;2.07;;;;;;;31.17;21.10;100765.59;5060491;28;20485;-77
2022/08/11 16:27:33;;;;;;;4.53;2.17;;;;;;;31.35;21.12;100760.72;5053738;28;20478;-78